createdAt,value
2017-05-28T00:09:38.008Z,0
2017-05-28T00:19:52.453Z,0
2017-05-28T00:30:06.718Z,0
2017-05-28T00:40:20.780Z,0
2017-05-28T00:50:34.574Z,0
2017-05-28T01:00:50.033Z,0
2017-05-28T01:11:04.702Z,0
2017-05-28T01:21:19.523Z,0
2017-05-28T01:31:34.829Z,0
2017-05-28T01:41:49.199Z,0
2017-05-28T01:52:04.362Z,0
2017-05-28T02:02:19.399Z,0
2017-05-28T02:12:34.794Z,0
2017-05-28T02:22:49.668Z,0
2017-05-28T02:33:04.460Z,0
2017-05-28T02:43:18.812Z,0
2017-05-28T02:53:33.525Z,0
2017-05-28T03:03:47.692Z,0
2017-05-28T03:14:01.591Z,5
2017-05-28T03:24:15.598Z,20
2017-05-28T03:34:29.506Z,35
2017-05-28T03:44:45.060Z,60
2017-05-28T03:55:00.616Z,90
2017-05-28T04:05:15.815Z,75
2017-05-28T04:15:29.680Z,65
2017-05-28T04:25:44.021Z,60
2017-05-28T04:35:57.876Z,85
2017-05-28T04:46:12.764Z,90
2017-05-28T04:56:27.898Z,100
2017-05-28T05:06:43.438Z,105
2017-05-28T05:16:58.321Z,100
2017-05-28T05:27:13.530Z,125
2017-05-28T05:37:28.707Z,85
2017-05-28T05:47:44.048Z,60
2017-05-28T05:57:58.934Z,140
2017-05-28T06:08:13.099Z,230
2017-05-28T06:18:27.953Z,245
2017-05-28T06:28:42.340Z,45
2017-05-28T06:38:56.167Z,55
2017-05-28T06:49:11.185Z,130
2017-05-28T06:59:26.349Z,320
2017-05-28T07:09:41.369Z,675
2017-05-28T07:19:55.687Z,1085
2017-05-28T07:30:11.324Z,830
2017-05-28T07:40:27.101Z,1425
2017-05-28T07:50:41.259Z,1455
2017-05-28T08:00:56.411Z,1640
2017-05-28T08:11:11.542Z,1610
2017-05-28T08:21:25.613Z,1685
2017-05-28T08:31:39.704Z,1720
2017-05-28T08:41:54.940Z,700
2017-05-28T08:52:10.781Z,1770
2017-05-28T09:02:24.963Z,1935
2017-05-28T09:12:40.688Z,1975
2017-05-28T09:22:55.247Z,1445
2017-05-28T09:33:10.255Z,1795
2017-05-28T09:43:25.175Z,1170
2017-05-28T09:53:40.460Z,660
2017-05-28T10:03:55.459Z,620
2017-05-28T10:14:11.296Z,2630
2017-05-28T10:24:25.458Z,2210
2017-05-28T10:34:40.108Z,1640
2017-05-28T10:44:55.197Z,1015
2017-05-28T10:55:09.846Z,1205
2017-05-28T11:05:25.040Z,895
2017-05-28T11:15:40.534Z,1015
2017-05-28T11:25:56.360Z,2050
2017-05-28T11:36:11.159Z,1175
2017-05-28T11:46:25.632Z,1365
2017-05-28T11:56:41.174Z,2380
2017-05-28T12:06:55.184Z,2290
2017-05-28T12:17:09.761Z,2255
2017-05-28T12:27:24.402Z,2105
2017-05-28T12:37:39.377Z,1920
2017-05-28T12:47:54.415Z,1785
2017-05-28T12:58:10.240Z,1670
2017-05-28T13:08:25.074Z,1355
2017-05-28T13:18:39.238Z,1215
2017-05-28T13:28:53.330Z,1150
2017-05-28T13:39:08.823Z,1200
2017-05-28T13:49:24.370Z,1575
2017-05-28T13:59:39.231Z,2185
2017-05-28T14:09:53.396Z,1610
2017-05-28T14:20:08.344Z,1390
2017-05-28T14:30:22.722Z,1780
2017-05-28T14:40:37.532Z,1690
2017-05-28T14:50:51.821Z,1525
2017-05-28T15:01:06.300Z,1395
2017-05-28T15:11:20.297Z,1105
2017-05-28T15:21:34.353Z,1355
2017-05-28T15:31:50.122Z,975
2017-05-28T15:42:04.569Z,870
2017-05-28T15:52:19.033Z,860
2017-05-28T16:02:34.887Z,805
2017-05-28T16:12:49.154Z,840
2017-05-28T16:23:03.984Z,895
2017-05-28T16:33:18.028Z,1135
2017-05-28T16:43:33.381Z,705
2017-05-28T16:53:48.339Z,540
2017-05-28T17:04:03.772Z,535
2017-05-28T17:14:17.945Z,440
2017-05-28T17:24:32.276Z,245
2017-05-28T17:34:47.317Z,205
2017-05-28T17:45:02.244Z,255
2017-05-28T17:55:16.328Z,275
2017-05-28T18:05:32.053Z,265
2017-05-28T18:15:47.540Z,205
2017-05-28T18:26:01.650Z,185
2017-05-28T18:36:16.596Z,175
2017-05-28T18:46:31.285Z,155
2017-05-28T18:56:45.344Z,125
2017-05-28T19:06:59.706Z,90
2017-05-28T19:17:14.557Z,40
2017-05-28T19:27:30.316Z,15
2017-05-28T19:37:44.944Z,10
2017-05-28T19:47:59.598Z,0
2017-05-28T19:58:13.442Z,0
2017-05-28T20:08:27.698Z,0
2017-05-28T20:18:42.298Z,0
2017-05-28T20:28:57.611Z,0
2017-05-28T20:39:11.615Z,0
2017-05-28T20:49:27.193Z,0
2017-05-28T20:59:41.577Z,0
2017-05-28T21:09:55.437Z,0
2017-05-28T21:20:11.112Z,0
2017-05-28T21:30:24.929Z,0
2017-05-28T21:40:39.143Z,0
2017-05-28T21:50:53.215Z,0
2017-05-28T22:01:08.894Z,0
2017-05-28T22:11:23.351Z,0
2017-05-28T22:21:37.166Z,0
2017-05-28T22:31:51.263Z,0
2017-05-28T22:42:06.251Z,0
2017-05-28T22:52:21.327Z,0
2017-05-28T23:02:36.931Z,0
2017-05-28T23:12:52.296Z,0
2017-05-28T23:23:06.206Z,0
2017-05-28T23:33:21.019Z,0
2017-05-28T23:43:34.970Z,0
2017-05-28T23:53:49.041Z,0
